createdAt,value
2022-12-23T00:02:19.290Z,100062.69
2022-12-23T00:07:39.891Z,100064.50
2022-12-23T00:13:20.163Z,100054.56
2022-12-23T00:18:42.201Z,100059.75
2022-12-23T00:24:02.593Z,100062.34
2022-12-23T00:29:23.185Z,100064.97
2022-12-23T00:34:43.872Z,100056.53
2022-12-23T00:40:40.442Z,100064.22
2022-12-23T00:46:00.779Z,100065.22
2022-12-23T00:51:21.266Z,100062.81
2022-12-23T00:56:41.370Z,100065.50
2022-12-23T01:02:20.888Z,100062.16
2022-12-23T01:07:42.495Z,100057.94
2022-12-23T01:13:04.249Z,100054.63
2022-12-23T01:18:24.775Z,100057.16
2022-12-23T01:23:45.161Z,100067.31
2022-12-23T01:29:05.660Z,100066.44
2022-12-23T01:34:31.056Z,100071.53
2022-12-23T01:39:54.819Z,100074.09
2022-12-23T01:45:35.648Z,100073.22
2022-12-23T01:51:04.698Z,100078.41
2022-12-23T01:56:27.847Z,100082.78
2022-12-23T02:02:07.621Z,100082.84
2022-12-23T02:07:47.343Z,100088.91
2022-12-23T02:13:25.030Z,100083.91
2022-12-23T02:19:04.690Z,100090.69
2022-12-23T02:24:59.716Z,100078.78
2022-12-23T02:30:45.037Z,100084.69
2022-12-23T02:36:38.991Z,100089.72
2022-12-23T02:42:51.396Z,100097.25
2022-12-23T02:48:22.690Z,100092.03
2022-12-23T02:53:53.891Z,100103.91
2022-12-23T02:59:19.591Z,100108.94
2022-12-23T03:04:42.332Z,100124.19
2022-12-23T03:10:32.006Z,100116.47
2022-12-23T03:16:12.421Z,100123.25
2022-12-23T03:21:57.160Z,100130.84
2022-12-23T03:27:26.332Z,100144.19
2022-12-23T03:32:48.690Z,100160.22
2022-12-23T03:38:13.808Z,100150.69
2022-12-23T03:43:43.495Z,100159.88
2022-12-23T03:49:15.405Z,100152.84
2022-12-23T03:54:55.097Z,100156.97
2022-12-23T04:00:15.955Z,100175.53
2022-12-23T04:05:40.271Z,100193.34
2022-12-23T04:11:01.761Z,100202.56
2022-12-23T04:16:23.063Z,100204.16
2022-12-23T04:21:43.595Z,100200.59
2022-12-23T04:27:04.500Z,100189.38
2022-12-23T04:32:26.693Z,100201.16
2022-12-23T04:37:47.500Z,100204.47
2022-12-23T04:43:08.000Z,100192.53
2022-12-23T04:48:28.827Z,100210.53
2022-12-23T04:53:49.541Z,100224.22
2022-12-23T04:59:10.578Z,100231.88
2022-12-23T05:04:31.218Z,100229.47
2022-12-23T05:09:51.739Z,100237.31
2022-12-23T05:15:12.415Z,100239.97
2022-12-23T05:20:32.511Z,100230.56
2022-12-23T05:25:53.718Z,100233.09
2022-12-23T05:31:14.778Z,100247.66
2022-12-23T05:36:35.200Z,100251.91
2022-12-23T05:41:55.785Z,100251.84
2022-12-23T05:47:16.246Z,100259.53
2022-12-23T05:52:37.429Z,100265.56
2022-12-23T05:57:58.023Z,100272.47
2022-12-23T06:03:18.765Z,100270.03
2022-12-23T06:08:39.673Z,100272.84
2022-12-23T06:14:00.342Z,100269.72
2022-12-23T06:19:20.722Z,100284.34
2022-12-23T06:24:41.360Z,100295.44
2022-12-23T06:30:01.987Z,100298.88
2022-12-23T06:35:22.963Z,100294.63
2022-12-23T06:40:43.818Z,100300.50
2022-12-23T06:46:04.493Z,100312.47
2022-12-23T06:51:24.991Z,100325.34
2022-12-23T06:56:45.996Z,100343.22
2022-12-23T07:02:06.702Z,100336.44
2022-12-23T07:07:27.164Z,100348.28
2022-12-23T07:12:50.863Z,100343.97
2022-12-23T07:18:11.898Z,100349.88
2022-12-23T07:23:32.516Z,100354.13
2022-12-23T07:28:53.173Z,100361.09
2022-12-23T07:34:13.520Z,100362.91
2022-12-23T07:39:34.736Z,100380.75
2022-12-23T07:44:55.404Z,100396.78
2022-12-23T07:50:17.104Z,100395.09
2022-12-23T07:55:37.776Z,100410.34
2022-12-23T08:01:08.050Z,100420.47
2022-12-23T08:14:33.606Z,100439.03
2022-12-23T08:19:54.160Z,100444.97
2022-12-23T08:25:14.860Z,100444.94
2022-12-23T08:30:35.303Z,100448.28
2022-12-23T08:35:56.013Z,100438.97
2022-12-23T08:41:20.528Z,100436.47
2022-12-23T08:46:41.359Z,100438.94
2022-12-23T08:52:03.556Z,100439.78
2022-12-23T08:57:24.985Z,100444.84
2022-12-23T09:02:46.067Z,100439.69
2022-12-23T09:08:06.828Z,100445.59
2022-12-23T09:13:34.884Z,100453.22
2022-12-23T09:18:56.885Z,100460.06
2022-12-23T09:24:17.228Z,100462.66
2022-12-23T09:29:37.996Z,100472.00
2022-12-23T09:34:58.621Z,100464.34
2022-12-23T09:40:21.343Z,100470.25
2022-12-23T09:45:58.855Z,100470.25
2022-12-23T09:51:23.201Z,100466.78
2022-12-23T09:57:03.010Z,100473.47
2022-12-23T10:02:46.734Z,100472.31
2022-12-23T10:08:14.165Z,100446.72
2022-12-23T10:13:40.613Z,100454.84
2022-12-23T10:19:26.093Z,100452.66
2022-12-23T10:24:46.919Z,100448.06
2022-12-23T10:30:42.690Z,100459.78
2022-12-23T10:36:34.822Z,100448.66
2022-12-23T10:42:07.241Z,100455.47
2022-12-23T10:47:50.504Z,100470.94
2022-12-23T10:53:22.197Z,100461.78
2022-12-23T10:58:46.548Z,100469.19
2022-12-23T11:04:19.508Z,100466.25
2022-12-23T11:09:44.073Z,100464.19
2022-12-23T11:15:05.093Z,100458.66
2022-12-23T11:20:25.818Z,100461.13
2022-12-23T11:25:46.803Z,100454.44
2022-12-23T11:31:11.838Z,100447.22
2022-12-23T11:36:34.163Z,100435.19
2022-12-23T11:42:02.751Z,100450.28
2022-12-23T11:47:25.334Z,100444.25
2022-12-23T11:52:54.801Z,100430.84
2022-12-23T11:58:21.254Z,100432.34
2022-12-23T12:03:48.408Z,100419.97
2022-12-23T12:09:13.175Z,100435.75
2022-12-23T12:14:42.192Z,100449.22
2022-12-23T12:20:17.865Z,100452.31
2022-12-23T12:26:02.536Z,100454.00
2022-12-23T12:31:30.286Z,100457.41
2022-12-23T12:37:08.700Z,100450.03
2022-12-23T12:42:39.587Z,100449.44
2022-12-23T12:48:22.575Z,100451.09
2022-12-23T12:54:22.356Z,100441.50
2022-12-23T12:59:44.044Z,100451.34
2022-12-23T13:05:25.836Z,100441.84
2022-12-23T13:10:55.675Z,100430.38
2022-12-23T13:16:34.907Z,100421.03
2022-12-23T13:22:07.699Z,100428.66
2022-12-23T13:27:33.704Z,100427.66
2022-12-23T13:33:08.938Z,100409.06
2022-12-23T13:38:53.866Z,100396.84
2022-12-23T13:44:15.478Z,100386.81
2022-12-23T13:50:02.469Z,100389.81
2022-12-23T13:55:44.666Z,100394.25
2022-12-23T14:01:08.237Z,100387.78
2022-12-23T14:06:28.740Z,100392.78
2022-12-23T14:11:50.018Z,100398.53
2022-12-23T14:17:20.198Z,100389.00
2022-12-23T14:22:54.860Z,100395.59
2022-12-23T14:28:34.929Z,100394.31
2022-12-23T14:34:03.088Z,100394.13
2022-12-23T14:39:33.886Z,100412.56
2022-12-23T14:44:54.563Z,100410.09
2022-12-23T14:50:35.240Z,100417.25
2022-12-23T14:56:08.042Z,100425.06
2022-12-23T15:01:41.589Z,100431.25
2022-12-23T15:07:07.165Z,100436.50
2022-12-23T15:12:34.967Z,100434.03
2022-12-23T15:18:04.170Z,100420.63
2022-12-23T15:23:24.863Z,100425.84
2022-12-23T15:28:45.566Z,100432.66
2022-12-23T15:34:16.887Z,100419.13
2022-12-23T15:39:41.657Z,100423.38
2022-12-23T15:45:27.006Z,100406.44
2022-12-23T15:50:50.709Z,100397.16
2022-12-23T15:56:22.308Z,100398.88
2022-12-23T16:01:43.193Z,100399.75
2022-12-23T16:07:03.632Z,100393.81
2022-12-23T16:12:26.896Z,100387.06
2022-12-23T16:17:47.127Z,100400.59
2022-12-23T16:23:10.469Z,100406.53
2022-12-23T16:28:43.487Z,100398.94
2022-12-23T16:34:07.718Z,100409.91
2022-12-23T16:39:28.346Z,100406.53
2022-12-23T16:44:49.075Z,100413.28
2022-12-23T16:50:14.436Z,100409.91
2022-12-23T16:55:34.897Z,100407.34
2022-12-23T17:00:55.880Z,100406.50
2022-12-23T17:06:17.126Z,100411.59
2022-12-23T17:11:50.169Z,100410.72
2022-12-23T17:17:16.813Z,100407.31
2022-12-23T17:22:38.004Z,100412.41
2022-12-23T17:27:59.177Z,100409.84
2022-12-23T17:33:20.519Z,100409.00
2022-12-23T17:38:41.011Z,100401.44
2022-12-23T17:44:02.133Z,100401.38
2022-12-23T17:49:22.690Z,100392.09
2022-12-23T17:54:45.376Z,100392.09
2022-12-23T18:00:06.973Z,100398.00
2022-12-23T18:05:36.131Z,100403.94
2022-12-23T18:10:58.290Z,100406.47
2022-12-23T18:16:18.945Z,100419.97
2022-12-23T18:21:39.495Z,100417.44
2022-12-23T18:27:00.427Z,100416.59
2022-12-23T18:32:25.329Z,100423.34
2022-12-23T18:37:45.850Z,100424.97
2022-12-23T18:43:06.793Z,100415.72
2022-12-23T18:48:27.399Z,100417.44
2022-12-23T18:53:48.315Z,100415.75
2022-12-23T18:59:30.145Z,100407.31
2022-12-23T19:04:50.824Z,100413.22
2022-12-23T19:10:15.573Z,100402.25
2022-12-23T19:15:35.889Z,100402.25
2022-12-23T19:20:56.754Z,100398.06
2022-12-23T19:26:17.446Z,100398.88
2022-12-23T19:31:38.051Z,100406.47
2022-12-23T19:36:58.928Z,100402.22
2022-12-23T19:42:20.064Z,100404.78
2022-12-23T19:47:40.653Z,100421.63
2022-12-23T19:53:01.277Z,100425.88
2022-12-23T19:58:22.768Z,100428.41
2022-12-23T20:03:44.839Z,100420.81
2022-12-23T20:09:07.400Z,100430.97
2022-12-23T20:14:32.308Z,100442.78
2022-12-23T20:19:54.838Z,100441.94
2022-12-23T20:25:15.581Z,100448.69
2022-12-23T20:30:36.224Z,100451.22
2022-12-23T20:35:56.607Z,100457.91
2022-12-23T20:41:20.705Z,100452.81
2022-12-23T20:46:41.300Z,100455.31
2022-12-23T20:52:01.863Z,100460.34
2022-12-23T20:57:23.208Z,100451.06
2022-12-23T21:02:43.928Z,100456.09
2022-12-23T21:08:04.511Z,100450.19
2022-12-23T21:13:25.442Z,100446.84
2022-12-23T21:18:53.126Z,100455.28
2022-12-23T21:24:14.340Z,100451.88
2022-12-23T21:29:34.643Z,100453.56
2022-12-23T21:34:54.873Z,100445.09
2022-12-23T21:40:15.389Z,100445.91
2022-12-23T21:45:35.925Z,100444.19
2022-12-23T21:51:12.181Z,100457.66
2022-12-23T21:56:33.003Z,100457.66
2022-12-23T22:01:53.448Z,100461.00
2022-12-23T22:07:13.995Z,100468.59
2022-12-23T22:12:34.321Z,100462.69
2022-12-23T22:17:54.687Z,100467.78
2022-12-23T22:23:15.484Z,100471.22
2022-12-23T22:28:37.154Z,100475.44
2022-12-23T22:33:57.722Z,100477.06
2022-12-23T22:39:21.705Z,100479.56
2022-12-23T22:44:42.328Z,100476.25
2022-12-23T22:50:03.622Z,100474.53
2022-12-23T22:55:27.038Z,100482.16
2022-12-23T23:00:47.756Z,100494.84
2022-12-23T23:06:09.893Z,100493.94
2022-12-23T23:11:30.414Z,100485.47
2022-12-23T23:16:51.370Z,100500.66
2022-12-23T23:22:11.977Z,100495.59
2022-12-23T23:27:33.180Z,100494.69
2022-12-23T23:32:53.626Z,100484.53
2022-12-23T23:38:14.206Z,100485.31
2022-12-23T23:43:34.730Z,100487.00
2022-12-23T23:48:55.296Z,100492.97
2022-12-23T23:54:16.449Z,100492.88
2022-12-23T23:59:36.884Z,100498.75
